sensor_id;sensor_type;location;lat;lon;timestamp;P1;durP1;ratioP1;P2;durP2;ratioP2
18304;SDS011;9278;52.156;21.048;2023-06-19T00:01:42;7.50;;;5.30;;
18304;SDS011;9278;52.156;21.048;2023-06-19T00:04:10;8.70;;;5.07;;
18304;SDS011;9278;52.156;21.048;2023-06-19T00:06:38;7.85;;;5.45;;
18304;SDS011;9278;52.156;21.048;2023-06-19T00:09:06;8.13;;;5.43;;
18304;SDS011;9278;52.156;21.048;2023-06-19T00:11:36;8.15;;;5.70;;
18304;SDS011;9278;52.156;21.048;2023-06-19T00:14:05;7.97;;;5.70;;
18304;SDS011;9278;52.156;21.048;2023-06-19T00:16:33;7.32;;;5.25;;
18304;SDS011;9278;52.156;21.048;2023-06-19T00:19:01;6.70;;;5.45;;
18304;SDS011;9278;52.156;21.048;2023-06-19T00:21:29;6.53;;;5.40;;
18304;SDS011;9278;52.156;21.048;2023-06-19T00:23:58;8.23;;;5.00;;
18304;SDS011;9278;52.156;21.048;2023-06-19T00:26:26;7.35;;;5.00;;
18304;SDS011;9278;52.156;21.048;2023-06-19T00:28:56;9.30;;;5.60;;
18304;SDS011;9278;52.156;21.048;2023-06-19T00:31:24;9.88;;;5.70;;
18304;SDS011;9278;52.156;21.048;2023-06-19T00:33:53;7.22;;;5.70;;
18304;SDS011;9278;52.156;21.048;2023-06-19T00:36:24;7.22;;;5.45;;
18304;SDS011;9278;52.156;21.048;2023-06-19T00:38:52;7.75;;;5.53;;
18304;SDS011;9278;52.156;21.048;2023-06-19T00:41:20;6.47;;;5.32;;
18304;SDS011;9278;52.156;21.048;2023-06-19T00:43:49;6.93;;;5.40;;
18304;SDS011;9278;52.156;21.048;2023-06-19T00:46:20;8.05;;;6.00;;
18304;SDS011;9278;52.156;21.048;2023-06-19T00:48:49;7.93;;;5.82;;
18304;SDS011;9278;52.156;21.048;2023-06-19T00:51:18;10.30;;;5.88;;
18304;SDS011;9278;52.156;21.048;2023-06-19T00:53:46;7.85;;;5.43;;
18304;SDS011;9278;52.156;21.048;2023-06-19T00:56:14;6.40;;;5.55;;
18304;SDS011;9278;52.156;21.048;2023-06-19T00:58:44;6.63;;;5.00;;
18304;SDS011;9278;52.156;21.048;2023-06-19T01:01:13;6.65;;;5.13;;
18304;SDS011;9278;52.156;21.048;2023-06-19T01:03:43;6.60;;;5.25;;
18304;SDS011;9278;52.156;21.048;2023-06-19T01:06:13;7.88;;;5.60;;
18304;SDS011;9278;52.156;21.048;2023-06-19T01:08:49;8.45;;;5.70;;
18304;SDS011;9278;52.156;21.048;2023-06-19T01:11:30;7.32;;;5.28;;
18304;SDS011;9278;52.156;21.048;2023-06-19T01:14:06;9.23;;;5.30;;
18304;SDS011;9278;52.156;21.048;2023-06-19T01:16:37;7.57;;;5.28;;
18304;SDS011;9278;52.156;21.048;2023-06-19T01:19:08;7.40;;;5.55;;
18304;SDS011;9278;52.156;21.048;2023-06-19T01:21:39;7.90;;;5.22;;
18304;SDS011;9278;52.156;21.048;2023-06-19T01:24:09;8.85;;;5.32;;
18304;SDS011;9278;52.156;21.048;2023-06-19T01:26:38;8.88;;;5.45;;
18304;SDS011;9278;52.156;21.048;2023-06-19T01:29:07;8.38;;;5.82;;
18304;SDS011;9278;52.156;21.048;2023-06-19T01:31:37;6.57;;;5.13;;
18304;SDS011;9278;52.156;21.048;2023-06-19T01:34:10;8.38;;;5.40;;
18304;SDS011;9278;52.156;21.048;2023-06-19T01:36:39;10.57;;;5.80;;
18304;SDS011;9278;52.156;21.048;2023-06-19T01:39:10;8.13;;;5.60;;
18304;SDS011;9278;52.156;21.048;2023-06-19T01:41:40;8.55;;;5.57;;
18304;SDS011;9278;52.156;21.048;2023-06-19T01:44:09;6.63;;;5.53;;
18304;SDS011;9278;52.156;21.048;2023-06-19T01:46:39;7.57;;;5.18;;
18304;SDS011;9278;52.156;21.048;2023-06-19T01:49:08;8.50;;;5.93;;
18304;SDS011;9278;52.156;21.048;2023-06-19T01:51:36;7.40;;;5.25;;
18304;SDS011;9278;52.156;21.048;2023-06-19T01:54:06;8.38;;;5.45;;
18304;SDS011;9278;52.156;21.048;2023-06-19T01:56:35;6.85;;;5.20;;
18304;SDS011;9278;52.156;21.048;2023-06-19T01:59:05;8.10;;;5.80;;
18304;SDS011;9278;52.156;21.048;2023-06-19T02:01:33;7.32;;;5.28;;
18304;SDS011;9278;52.156;21.048;2023-06-19T02:04:02;13.20;;;5.68;;
18304;SDS011;9278;52.156;21.048;2023-06-19T02:06:31;6.80;;;5.55;;
18304;SDS011;9278;52.156;21.048;2023-06-19T02:08:59;8.23;;;5.45;;
18304;SDS011;9278;52.156;21.048;2023-06-19T02:11:27;6.55;;;5.22;;
18304;SDS011;9278;52.156;21.048;2023-06-19T02:13:57;8.75;;;5.50;;
18304;SDS011;9278;52.156;21.048;2023-06-19T02:16:25;8.70;;;5.95;;
18304;SDS011;9278;52.156;21.048;2023-06-19T02:18:54;6.07;;;5.30;;
18304;SDS011;9278;52.156;21.048;2023-06-19T02:21:23;9.10;;;5.47;;
18304;SDS011;9278;52.156;21.048;2023-06-19T02:23:51;8.80;;;5.63;;
18304;SDS011;9278;52.156;21.048;2023-06-19T02:26:19;12.38;;;5.95;;
18304;SDS011;9278;52.156;21.048;2023-06-19T02:28:48;6.78;;;5.43;;
18304;SDS011;9278;52.156;21.048;2023-06-19T02:31:18;7.80;;;5.68;;
18304;SDS011;9278;52.156;21.048;2023-06-19T02:33:46;7.18;;;5.50;;
18304;SDS011;9278;52.156;21.048;2023-06-19T02:36:14;7.25;;;5.75;;
18304;SDS011;9278;52.156;21.048;2023-06-19T02:38:45;8.35;;;4.97;;
18304;SDS011;9278;52.156;21.048;2023-06-19T02:41:14;8.27;;;5.60;;
18304;SDS011;9278;52.156;21.048;2023-06-19T02:43:42;7.78;;;5.68;;
18304;SDS011;9278;52.156;21.048;2023-06-19T02:46:11;7.30;;;5.63;;
18304;SDS011;9278;52.156;21.048;2023-06-19T02:48:41;8.98;;;5.90;;
18304;SDS011;9278;52.156;21.048;2023-06-19T02:51:09;8.75;;;5.65;;
18304;SDS011;9278;52.156;21.048;2023-06-19T02:53:37;7.25;;;5.93;;
18304;SDS011;9278;52.156;21.048;2023-06-19T02:56:09;9.00;;;5.72;;
18304;SDS011;9278;52.156;21.048;2023-06-19T02:58:37;8.43;;;5.28;;
18304;SDS011;9278;52.156;21.048;2023-06-19T03:01:07;10.93;;;5.65;;
18304;SDS011;9278;52.156;21.048;2023-06-19T03:03:35;8.23;;;5.97;;
18304;SDS011;9278;52.156;21.048;2023-06-19T03:06:06;7.85;;;5.35;;
18304;SDS011;9278;52.156;21.048;2023-06-19T03:08:35;9.55;;;5.28;;
18304;SDS011;9278;52.156;21.048;2023-06-19T03:11:04;6.13;;;5.30;;
18304;SDS011;9278;52.156;21.048;2023-06-19T03:13:43;6.95;;;5.30;;
18304;SDS011;9278;52.156;21.048;2023-06-19T03:16:12;6.90;;;5.18;;
18304;SDS011;9278;52.156;21.048;2023-06-19T03:18:42;6.10;;;5.50;;
18304;SDS011;9278;52.156;21.048;2023-06-19T03:21:16;6.28;;;5.45;;
18304;SDS011;9278;52.156;21.048;2023-06-19T03:23:47;6.68;;;5.97;;
18304;SDS011;9278;52.156;21.048;2023-06-19T03:26:18;6.15;;;5.18;;
18304;SDS011;9278;52.156;21.048;2023-06-19T03:28:47;7.82;;;5.53;;
18304;SDS011;9278;52.156;21.048;2023-06-19T03:31:15;10.65;;;5.68;;
18304;SDS011;9278;52.156;21.048;2023-06-19T03:33:44;6.80;;;5.55;;
18304;SDS011;9278;52.156;21.048;2023-06-19T03:36:12;8.20;;;5.93;;
18304;SDS011;9278;52.156;21.048;2023-06-19T03:39:05;8.07;;;5.57;;
18304;SDS011;9278;52.156;21.048;2023-06-19T03:41:33;8.88;;;5.80;;
18304;SDS011;9278;52.156;21.048;2023-06-19T03:44:02;6.43;;;5.38;;
18304;SDS011;9278;52.156;21.048;2023-06-19T03:46:30;6.78;;;5.07;;
18304;SDS011;9278;52.156;21.048;2023-06-19T03:48:59;7.80;;;5.55;;
18304;SDS011;9278;52.156;21.048;2023-06-19T03:51:28;7.03;;;5.38;;
18304;SDS011;9278;52.156;21.048;2023-06-19T03:53:56;6.97;;;5.38;;
18304;SDS011;9278;52.156;21.048;2023-06-19T03:56:27;8.65;;;5.13;;
18304;SDS011;9278;52.156;21.048;2023-06-19T03:58:55;8.80;;;5.45;;
18304;SDS011;9278;52.156;21.048;2023-06-19T04:01:23;6.38;;;5.07;;
18304;SDS011;9278;52.156;21.048;2023-06-19T04:03:52;7.38;;;5.35;;
18304;SDS011;9278;52.156;21.048;2023-06-19T04:06:21;8.88;;;5.40;;
18304;SDS011;9278;52.156;21.048;2023-06-19T04:08:50;8.93;;;5.53;;
18304;SDS011;9278;52.156;21.048;2023-06-19T04:11:19;8.48;;;5.32;;
18304;SDS011;9278;52.156;21.048;2023-06-19T04:13:49;7.57;;;5.35;;
18304;SDS011;9278;52.156;21.048;2023-06-19T04:16:17;6.47;;;4.72;;
18304;SDS011;9278;52.156;21.048;2023-06-19T04:18:46;6.40;;;5.45;;
18304;SDS011;9278;52.156;21.048;2023-06-19T04:21:15;7.72;;;5.90;;
18304;SDS011;9278;52.156;21.048;2023-06-19T04:23:43;6.50;;;5.35;;
18304;SDS011;9278;52.156;21.048;2023-06-19T04:26:11;7.95;;;5.38;;
18304;SDS011;9278;52.156;21.048;2023-06-19T04:28:40;7.03;;;5.20;;
18304;SDS011;9278;52.156;21.048;2023-06-19T04:31:10;6.53;;;4.90;;
18304;SDS011;9278;52.156;21.048;2023-06-19T04:33:38;11.15;;;6.03;;
18304;SDS011;9278;52.156;21.048;2023-06-19T04:36:08;7.82;;;5.80;;
18304;SDS011;9278;52.156;21.048;2023-06-19T04:38:36;7.00;;;5.80;;
18304;SDS011;9278;52.156;21.048;2023-06-19T04:41:05;9.93;;;5.75;;
18304;SDS011;9278;52.156;21.048;2023-06-19T04:43:33;8.15;;;6.03;;
18304;SDS011;9278;52.156;21.048;2023-06-19T04:46:01;7.22;;;5.82;;
18304;SDS011;9278;52.156;21.048;2023-06-19T04:48:32;8.23;;;5.18;;
18304;SDS011;9278;52.156;21.048;2023-06-19T04:51:02;8.43;;;5.53;;
18304;SDS011;9278;52.156;21.048;2023-06-19T04:53:30;7.50;;;5.78;;
18304;SDS011;9278;52.156;21.048;2023-06-19T04:55:59;9.52;;;5.60;;
18304;SDS011;9278;52.156;21.048;2023-06-19T04:58:28;6.43;;;5.35;;
18304;SDS011;9278;52.156;21.048;2023-06-19T05:00:56;7.30;;;5.43;;
18304;SDS011;9278;52.156;21.048;2023-06-19T05:03:25;8.52;;;5.50;;
18304;SDS011;9278;52.156;21.048;2023-06-19T05:05:54;7.35;;;5.60;;
18304;SDS011;9278;52.156;21.048;2023-06-19T05:08:25;8.75;;;5.85;;
18304;SDS011;9278;52.156;21.048;2023-06-19T05:10:53;6.68;;;5.20;;
18304;SDS011;9278;52.156;21.048;2023-06-19T05:13:22;6.57;;;5.10;;
18304;SDS011;9278;52.156;21.048;2023-06-19T05:15:51;6.72;;;5.65;;
18304;SDS011;9278;52.156;21.048;2023-06-19T05:18:19;7.82;;;5.18;;
18304;SDS011;9278;52.156;21.048;2023-06-19T05:20:48;7.85;;;6.18;;
18304;SDS011;9278;52.156;21.048;2023-06-19T05:23:17;6.55;;;5.53;;
18304;SDS011;9278;52.156;21.048;2023-06-19T05:25:46;6.00;;;4.72;;
18304;SDS011;9278;52.156;21.048;2023-06-19T05:28:14;6.50;;;5.20;;
18304;SDS011;9278;52.156;21.048;2023-06-19T05:30:42;5.97;;;5.13;;
18304;SDS011;9278;52.156;21.048;2023-06-19T05:33:11;8.32;;;4.93;;
18304;SDS011;9278;52.156;21.048;2023-06-19T05:35:42;10.63;;;5.00;;
18304;SDS011;9278;52.156;21.048;2023-06-19T05:38:19;6.57;;;5.05;;
18304;SDS011;9278;52.156;21.048;2023-06-19T05:40:47;6.15;;;5.18;;
18304;SDS011;9278;52.156;21.048;2023-06-19T05:43:15;7.93;;;4.43;;
18304;SDS011;9278;52.156;21.048;2023-06-19T05:45:45;6.13;;;4.93;;
18304;SDS011;9278;52.156;21.048;2023-06-19T05:48:13;6.43;;;4.82;;
18304;SDS011;9278;52.156;21.048;2023-06-19T05:50:41;6.50;;;4.78;;
18304;SDS011;9278;52.156;21.048;2023-06-19T05:53:10;6.18;;;4.85;;
18304;SDS011;9278;52.156;21.048;2023-06-19T05:55:42;7.32;;;5.07;;
18304;SDS011;9278;52.156;21.048;2023-06-19T05:58:10;6.57;;;4.95;;
18304;SDS011;9278;52.156;21.048;2023-06-19T06:00:39;6.10;;;4.80;;
18304;SDS011;9278;52.156;21.048;2023-06-19T06:03:07;5.95;;;4.72;;
18304;SDS011;9278;52.156;21.048;2023-06-19T06:05:36;5.32;;;4.82;;
18304;SDS011;9278;52.156;21.048;2023-06-19T06:08:04;4.90;;;4.40;;
18304;SDS011;9278;52.156;21.048;2023-06-19T06:10:33;8.73;;;5.00;;
18304;SDS011;9278;52.156;21.048;2023-06-19T06:13:03;5.45;;;4.75;;
18304;SDS011;9278;52.156;21.048;2023-06-19T06:15:31;7.93;;;5.07;;
18304;SDS011;9278;52.156;21.048;2023-06-19T06:17:59;6.10;;;4.80;;
18304;SDS011;9278;52.156;21.048;2023-06-19T06:20:30;6.35;;;5.05;;
18304;SDS011;9278;52.156;21.048;2023-06-19T06:22:58;7.43;;;4.28;;
18304;SDS011;9278;52.156;21.048;2023-06-19T06:25:26;6.20;;;4.85;;
18304;SDS011;9278;52.156;21.048;2023-06-19T06:27:55;11.38;;;4.60;;
18304;SDS011;9278;52.156;21.048;2023-06-19T06:30:25;7.80;;;4.80;;
18304;SDS011;9278;52.156;21.048;2023-06-19T06:32:54;8.15;;;4.38;;
18304;SDS011;9278;52.156;21.048;2023-06-19T06:35:22;5.97;;;4.72;;
18304;SDS011;9278;52.156;21.048;2023-06-19T06:37:50;5.97;;;4.53;;
18304;SDS011;9278;52.156;21.048;2023-06-19T06:40:18;6.18;;;4.50;;
18304;SDS011;9278;52.156;21.048;2023-06-19T06:42:47;8.43;;;4.28;;
18304;SDS011;9278;52.156;21.048;2023-06-19T06:45:16;7.32;;;4.78;;
18304;SDS011;9278;52.156;21.048;2023-06-19T06:47:45;5.53;;;4.10;;
18304;SDS011;9278;52.156;21.048;2023-06-19T06:50:14;5.93;;;4.28;;
18304;SDS011;9278;52.156;21.048;2023-06-19T06:52:43;6.90;;;4.60;;
18304;SDS011;9278;52.156;21.048;2023-06-19T06:55:12;7.63;;;4.07;;
18304;SDS011;9278;52.156;21.048;2023-06-19T06:57:40;5.50;;;4.22;;
18304;SDS011;9278;52.156;21.048;2023-06-19T07:00:09;8.02;;;4.10;;
18304;SDS011;9278;52.156;21.048;2023-06-19T07:02:38;6.40;;;4.15;;
18304;SDS011;9278;52.156;21.048;2023-06-19T07:05:09;5.93;;;4.32;;
18304;SDS011;9278;52.156;21.048;2023-06-19T07:07:38;7.00;;;4.03;;
18304;SDS011;9278;52.156;21.048;2023-06-19T07:10:07;5.32;;;4.30;;
18304;SDS011;9278;52.156;21.048;2023-06-19T07:12:43;5.10;;;4.35;;
18304;SDS011;9278;52.156;21.048;2023-06-19T07:15:12;6.15;;;4.57;;
18304;SDS011;9278;52.156;21.048;2023-06-19T07:17:41;5.93;;;4.93;;
18304;SDS011;9278;52.156;21.048;2023-06-19T07:20:11;5.38;;;4.53;;
18304;SDS011;9278;52.156;21.048;2023-06-19T07:22:39;5.80;;;4.75;;
18304;SDS011;9278;52.156;21.048;2023-06-19T07:25:09;7.95;;;4.95;;
18304;SDS011;9278;52.156;21.048;2023-06-19T07:27:39;7.47;;;5.00;;
18304;SDS011;9278;52.156;21.048;2023-06-19T07:30:08;7.45;;;4.95;;
18304;SDS011;9278;52.156;21.048;2023-06-19T07:32:42;6.15;;;4.95;;
18304;SDS011;9278;52.156;21.048;2023-06-19T07:35:11;7.10;;;4.80;;
18304;SDS011;9278;52.156;21.048;2023-06-19T07:37:40;6.30;;;4.85;;
18304;SDS011;9278;52.156;21.048;2023-06-19T07:40:09;5.72;;;4.18;;
18304;SDS011;9278;52.156;21.048;2023-06-19T07:42:38;7.30;;;5.38;;
18304;SDS011;9278;52.156;21.048;2023-06-19T07:45:10;7.03;;;5.30;;
18304;SDS011;9278;52.156;21.048;2023-06-19T07:47:39;6.70;;;5.20;;
18304;SDS011;9278;52.156;21.048;2023-06-19T07:50:08;6.43;;;4.50;;
18304;SDS011;9278;52.156;21.048;2023-06-19T07:52:38;5.43;;;4.78;;
18304;SDS011;9278;52.156;21.048;2023-06-19T07:55:07;8.93;;;5.45;;
18304;SDS011;9278;52.156;21.048;2023-06-19T07:57:35;6.47;;;5.75;;
18304;SDS011;9278;52.156;21.048;2023-06-19T08:00:04;6.38;;;5.20;;
18304;SDS011;9278;52.156;21.048;2023-06-19T08:02:38;8.27;;;5.43;;
18304;SDS011;9278;52.156;21.048;2023-06-19T08:05:07;9.10;;;5.90;;
18304;SDS011;9278;52.156;21.048;2023-06-19T08:07:36;6.03;;;5.13;;
18304;SDS011;9278;52.156;21.048;2023-06-19T08:10:06;6.70;;;5.75;;
18304;SDS011;9278;52.156;21.048;2023-06-19T08:12:40;7.43;;;6.07;;
18304;SDS011;9278;52.156;21.048;2023-06-19T08:15:09;6.70;;;6.00;;
18304;SDS011;9278;52.156;21.048;2023-06-19T08:17:40;9.02;;;5.22;;
18304;SDS011;9278;52.156;21.048;2023-06-19T08:20:09;7.15;;;6.00;;
18304;SDS011;9278;52.156;21.048;2023-06-19T08:22:37;7.78;;;5.82;;
18304;SDS011;9278;52.156;21.048;2023-06-19T08:25:07;8.43;;;5.90;;
18304;SDS011;9278;52.156;21.048;2023-06-19T08:27:36;7.57;;;5.93;;
18304;SDS011;9278;52.156;21.048;2023-06-19T08:30:04;7.05;;;5.70;;
18304;SDS011;9278;52.156;21.048;2023-06-19T08:32:34;6.50;;;5.40;;
18304;SDS011;9278;52.156;21.048;2023-06-19T08:35:02;8.00;;;5.80;;
18304;SDS011;9278;52.156;21.048;2023-06-19T08:37:31;7.00;;;5.18;;
18304;SDS011;9278;52.156;21.048;2023-06-19T08:39:59;6.47;;;5.43;;
18304;SDS011;9278;52.156;21.048;2023-06-19T08:42:30;7.07;;;5.70;;
18304;SDS011;9278;52.156;21.048;2023-06-19T08:44:58;7.10;;;5.78;;
18304;SDS011;9278;52.156;21.048;2023-06-19T08:47:28;8.52;;;5.97;;
18304;SDS011;9278;52.156;21.048;2023-06-19T08:49:57;7.15;;;5.72;;
18304;SDS011;9278;52.156;21.048;2023-06-19T08:52:28;6.35;;;5.30;;
18304;SDS011;9278;52.156;21.048;2023-06-19T08:54:56;6.18;;;5.53;;
18304;SDS011;9278;52.156;21.048;2023-06-19T08:57:34;6.80;;;5.70;;
18304;SDS011;9278;52.156;21.048;2023-06-19T09:00:03;6.15;;;5.50;;
18304;SDS011;9278;52.156;21.048;2023-06-19T09:02:37;10.82;;;5.63;;
18304;SDS011;9278;52.156;21.048;2023-06-19T09:05:13;8.10;;;6.13;;
18304;SDS011;9278;52.156;21.048;2023-06-19T09:07:42;7.65;;;5.18;;
18304;SDS011;9278;52.156;21.048;2023-06-19T09:10:13;8.63;;;5.45;;
18304;SDS011;9278;52.156;21.048;2023-06-19T09:12:56;8.15;;;5.40;;
18304;SDS011;9278;52.156;21.048;2023-06-19T09:15:29;6.43;;;5.65;;
18304;SDS011;9278;52.156;21.048;2023-06-19T09:18:00;7.03;;;5.32;;
18304;SDS011;9278;52.156;21.048;2023-06-19T09:20:30;5.78;;;5.18;;
18304;SDS011;9278;52.156;21.048;2023-06-19T09:22:59;6.03;;;5.25;;
18304;SDS011;9278;52.156;21.048;2023-06-19T09:25:27;6.00;;;4.90;;
18304;SDS011;9278;52.156;21.048;2023-06-19T09:27:57;6.65;;;5.60;;
18304;SDS011;9278;52.156;21.048;2023-06-19T09:30:25;7.68;;;5.60;;
18304;SDS011;9278;52.156;21.048;2023-06-19T09:32:54;6.35;;;5.18;;
18304;SDS011;9278;52.156;21.048;2023-06-19T09:35:22;7.15;;;5.13;;
18304;SDS011;9278;52.156;21.048;2023-06-19T09:37:54;5.15;;;4.43;;
18304;SDS011;9278;52.156;21.048;2023-06-19T09:40:24;5.28;;;4.78;;
18304;SDS011;9278;52.156;21.048;2023-06-19T09:42:54;6.40;;;5.22;;
18304;SDS011;9278;52.156;21.048;2023-06-19T09:45:29;5.97;;;4.72;;
18304;SDS011;9278;52.156;21.048;2023-06-19T09:47:59;5.82;;;4.93;;
18304;SDS011;9278;52.156;21.048;2023-06-19T09:50:45;5.15;;;4.38;;
18304;SDS011;9278;52.156;21.048;2023-06-19T09:53:16;6.10;;;5.10;;
18304;SDS011;9278;52.156;21.048;2023-06-19T09:55:46;6.90;;;4.72;;
18304;SDS011;9278;52.156;21.048;2023-06-19T09:58:16;5.68;;;4.85;;
18304;SDS011;9278;52.156;21.048;2023-06-19T10:00:47;5.68;;;4.38;;
18304;SDS011;9278;52.156;21.048;2023-06-19T10:03:17;5.38;;;4.60;;
18304;SDS011;9278;52.156;21.048;2023-06-19T10:05:45;5.35;;;4.60;;
18304;SDS011;9278;52.156;21.048;2023-06-19T10:08:14;8.13;;;4.75;;
18304;SDS011;9278;52.156;21.048;2023-06-19T10:10:54;5.63;;;4.70;;
18304;SDS011;9278;52.156;21.048;2023-06-19T10:13:30;5.68;;;4.13;;
18304;SDS011;9278;52.156;21.048;2023-06-19T10:16:01;6.32;;;4.60;;
18304;SDS011;9278;52.156;21.048;2023-06-19T10:18:31;7.35;;;4.65;;
18304;SDS011;9278;52.156;21.048;2023-06-19T10:20:59;6.18;;;4.70;;
18304;SDS011;9278;52.156;21.048;2023-06-19T10:23:28;5.50;;;4.38;;
18304;SDS011;9278;52.156;21.048;2023-06-19T10:26:05;5.70;;;4.68;;
18304;SDS011;9278;52.156;21.048;2023-06-19T10:28:34;8.27;;;4.80;;
18304;SDS011;9278;52.156;21.048;2023-06-19T10:31:04;7.68;;;4.70;;
18304;SDS011;9278;52.156;21.048;2023-06-19T10:33:34;5.55;;;4.65;;
18304;SDS011;9278;52.156;21.048;2023-06-19T10:36:13;5.10;;;4.38;;
18304;SDS011;9278;52.156;21.048;2023-06-19T10:38:42;5.45;;;4.60;;
18304;SDS011;9278;52.156;21.048;2023-06-19T10:41:14;6.50;;;4.32;;
18304;SDS011;9278;52.156;21.048;2023-06-19T10:43:52;6.70;;;4.47;;
18304;SDS011;9278;52.156;21.048;2023-06-19T10:46:23;12.93;;;4.53;;
18304;SDS011;9278;52.156;21.048;2023-06-19T10:48:52;7.85;;;4.45;;
18304;SDS011;9278;52.156;21.048;2023-06-19T10:51:26;6.47;;;4.60;;
18304;SDS011;9278;52.156;21.048;2023-06-19T10:53:55;9.40;;;5.13;;
18304;SDS011;9278;52.156;21.048;2023-06-19T10:56:24;7.53;;;4.65;;
18304;SDS011;9278;52.156;21.048;2023-06-19T10:58:59;9.07;;;5.55;;
18304;SDS011;9278;52.156;21.048;2023-06-19T11:01:36;7.63;;;4.80;;
18304;SDS011;9278;52.156;21.048;2023-06-19T11:04:06;9.30;;;5.00;;
18304;SDS011;9278;52.156;21.048;2023-06-19T11:06:35;11.48;;;4.45;;
18304;SDS011;9278;52.156;21.048;2023-06-19T11:09:04;7.28;;;4.97;;
18304;SDS011;9278;52.156;21.048;2023-06-19T11:11:35;8.35;;;4.88;;
18304;SDS011;9278;52.156;21.048;2023-06-19T11:14:04;9.30;;;5.20;;
18304;SDS011;9278;52.156;21.048;2023-06-19T11:16:33;8.23;;;4.78;;
18304;SDS011;9278;52.156;21.048;2023-06-19T11:19:06;8.27;;;4.53;;
18304;SDS011;9278;52.156;21.048;2023-06-19T11:21:35;8.98;;;5.20;;
18304;SDS011;9278;52.156;21.048;2023-06-19T11:24:05;6.22;;;4.72;;
18304;SDS011;9278;52.156;21.048;2023-06-19T11:26:38;5.88;;;4.78;;
18304;SDS011;9278;52.156;21.048;2023-06-19T11:29:14;7.55;;;5.07;;
18304;SDS011;9278;52.156;21.048;2023-06-19T11:31:45;6.80;;;4.97;;
18304;SDS011;9278;52.156;21.048;2023-06-19T11:34:14;6.43;;;4.88;;
18304;SDS011;9278;52.156;21.048;2023-06-19T11:36:46;4.97;;;4.32;;
18304;SDS011;9278;52.156;21.048;2023-06-19T11:39:14;6.88;;;4.78;;
18304;SDS011;9278;52.156;21.048;2023-06-19T11:41:44;6.28;;;4.60;;
18304;SDS011;9278;52.156;21.048;2023-06-19T11:44:12;8.40;;;4.75;;
18304;SDS011;9278;52.156;21.048;2023-06-19T11:46:41;6.65;;;4.28;;
18304;SDS011;9278;52.156;21.048;2023-06-19T11:49:12;8.75;;;4.95;;
18304;SDS011;9278;52.156;21.048;2023-06-19T11:51:41;6.03;;;4.43;;
18304;SDS011;9278;52.156;21.048;2023-06-19T11:54:09;7.38;;;4.60;;
18304;SDS011;9278;52.156;21.048;2023-06-19T11:56:41;5.82;;;4.38;;
18304;SDS011;9278;52.156;21.048;2023-06-19T11:59:09;6.93;;;4.15;;
18304;SDS011;9278;52.156;21.048;2023-06-19T12:01:38;5.47;;;4.32;;
18304;SDS011;9278;52.156;21.048;2023-06-19T12:04:06;7.30;;;5.20;;
18304;SDS011;9278;52.156;21.048;2023-06-19T12:06:36;6.15;;;4.30;;
18304;SDS011;9278;52.156;21.048;2023-06-19T12:09:04;4.95;;;4.40;;
18304;SDS011;9278;52.156;21.048;2023-06-19T12:11:33;7.05;;;4.60;;
18304;SDS011;9278;52.156;21.048;2023-06-19T12:14:01;7.45;;;4.82;;
18304;SDS011;9278;52.156;21.048;2023-06-19T12:16:29;6.13;;;4.25;;
18304;SDS011;9278;52.156;21.048;2023-06-19T12:18:58;4.93;;;4.15;;
18304;SDS011;9278;52.156;21.048;2023-06-19T12:21:26;5.75;;;4.25;;
18304;SDS011;9278;52.156;21.048;2023-06-19T12:24:04;6.22;;;4.32;;
18304;SDS011;9278;52.156;21.048;2023-06-19T12:26:33;5.63;;;4.60;;
18304;SDS011;9278;52.156;21.048;2023-06-19T12:29:04;6.18;;;3.75;;
18304;SDS011;9278;52.156;21.048;2023-06-19T12:31:33;5.05;;;3.75;;
18304;SDS011;9278;52.156;21.048;2023-06-19T12:34:02;7.45;;;4.03;;
18304;SDS011;9278;52.156;21.048;2023-06-19T12:36:51;6.40;;;4.00;;
18304;SDS011;9278;52.156;21.048;2023-06-19T12:39:22;5.32;;;4.05;;
18304;SDS011;9278;52.156;21.048;2023-06-19T12:41:51;4.65;;;3.90;;
18304;SDS011;9278;52.156;21.048;2023-06-19T12:44:20;6.63;;;4.05;;
18304;SDS011;9278;52.156;21.048;2023-06-19T12:46:49;5.32;;;4.10;;
18304;SDS011;9278;52.156;21.048;2023-06-19T12:49:19;4.78;;;4.05;;
18304;SDS011;9278;52.156;21.048;2023-06-19T12:51:47;10.10;;;4.10;;
18304;SDS011;9278;52.156;21.048;2023-06-19T12:54:18;5.63;;;4.03;;
18304;SDS011;9278;52.156;21.048;2023-06-19T12:56:47;5.97;;;4.00;;
18304;SDS011;9278;52.156;21.048;2023-06-19T12:59:17;5.35;;;4.20;;
18304;SDS011;9278;52.156;21.048;2023-06-19T13:01:45;6.57;;;3.85;;
18304;SDS011;9278;52.156;21.048;2023-06-19T13:04:14;5.15;;;4.22;;
18304;SDS011;9278;52.156;21.048;2023-06-19T13:06:42;5.40;;;4.25;;
18304;SDS011;9278;52.156;21.048;2023-06-19T13:09:11;5.32;;;4.18;;
18304;SDS011;9278;52.156;21.048;2023-06-19T13:11:39;6.38;;;4.38;;
18304;SDS011;9278;52.156;21.048;2023-06-19T13:14:09;5.55;;;3.72;;
18304;SDS011;9278;52.156;21.048;2023-06-19T13:16:37;8.10;;;4.00;;
18304;SDS011;9278;52.156;21.048;2023-06-19T13:19:12;5.18;;;4.18;;
18304;SDS011;9278;52.156;21.048;2023-06-19T13:21:41;4.97;;;3.63;;
18304;SDS011;9278;52.156;21.048;2023-06-19T13:24:10;9.23;;;4.40;;
18304;SDS011;9278;52.156;21.048;2023-06-19T13:26:39;6.95;;;3.97;;
18304;SDS011;9278;52.156;21.048;2023-06-19T13:29:07;4.05;;;3.63;;
18304;SDS011;9278;52.156;21.048;2023-06-19T13:31:37;4.82;;;4.30;;
18304;SDS011;9278;52.156;21.048;2023-06-19T13:34:05;4.38;;;3.80;;
18304;SDS011;9278;52.156;21.048;2023-06-19T13:36:34;4.20;;;3.80;;
18304;SDS011;9278;52.156;21.048;2023-06-19T13:39:02;4.97;;;4.10;;
18304;SDS011;9278;52.156;21.048;2023-06-19T13:41:31;4.68;;;3.88;;
18304;SDS011;9278;52.156;21.048;2023-06-19T13:44:01;4.78;;;3.88;;
18304;SDS011;9278;52.156;21.048;2023-06-19T13:46:30;4.60;;;4.10;;
18304;SDS011;9278;52.156;21.048;2023-06-19T13:48:59;4.70;;;4.00;;
18304;SDS011;9278;52.156;21.048;2023-06-19T13:51:27;4.32;;;3.92;;
18304;SDS011;9278;52.156;21.048;2023-06-19T13:53:56;6.45;;;4.10;;
18304;SDS011;9278;52.156;21.048;2023-06-19T13:56:24;8.48;;;4.10;;
18304;SDS011;9278;52.156;21.048;2023-06-19T13:58:52;5.43;;;4.10;;
18304;SDS011;9278;52.156;21.048;2023-06-19T14:01:21;6.20;;;3.90;;
18304;SDS011;9278;52.156;21.048;2023-06-19T14:03:53;5.75;;;4.03;;
18304;SDS011;9278;52.156;21.048;2023-06-19T14:06:23;8.68;;;4.18;;
18304;SDS011;9278;52.156;21.048;2023-06-19T14:08:52;6.57;;;4.63;;
18304;SDS011;9278;52.156;21.048;2023-06-19T14:11:21;5.82;;;4.07;;
18304;SDS011;9278;52.156;21.048;2023-06-19T14:13:49;8.10;;;4.80;;
18304;SDS011;9278;52.156;21.048;2023-06-19T14:16:17;5.30;;;4.57;;
18304;SDS011;9278;52.156;21.048;2023-06-19T14:18:46;8.00;;;4.88;;
18304;SDS011;9278;52.156;21.048;2023-06-19T14:21:15;8.32;;;4.85;;
18304;SDS011;9278;52.156;21.048;2023-06-19T14:23:44;7.38;;;4.65;;
18304;SDS011;9278;52.156;21.048;2023-06-19T14:26:12;8.32;;;5.50;;
18304;SDS011;9278;52.156;21.048;2023-06-19T14:28:41;7.25;;;4.65;;
18304;SDS011;9278;52.156;21.048;2023-06-19T14:31:09;10.20;;;5.40;;
18304;SDS011;9278;52.156;21.048;2023-06-19T14:33:37;12.40;;;5.63;;
18304;SDS011;9278;52.156;21.048;2023-06-19T14:36:06;9.05;;;5.07;;
18304;SDS011;9278;52.156;21.048;2023-06-19T14:38:35;7.78;;;4.95;;
18304;SDS011;9278;52.156;21.048;2023-06-19T14:41:04;8.07;;;4.97;;
18304;SDS011;9278;52.156;21.048;2023-06-19T14:43:32;7.50;;;5.03;;
18304;SDS011;9278;52.156;21.048;2023-06-19T14:46:02;6.65;;;4.85;;
18304;SDS011;9278;52.156;21.048;2023-06-19T14:48:31;7.20;;;4.50;;
18304;SDS011;9278;52.156;21.048;2023-06-19T14:51:00;10.77;;;4.68;;
18304;SDS011;9278;52.156;21.048;2023-06-19T14:53:31;7.55;;;4.60;;
18304;SDS011;9278;52.156;21.048;2023-06-19T14:56:01;6.15;;;4.57;;
18304;SDS011;9278;52.156;21.048;2023-06-19T14:58:29;7.22;;;4.20;;
18304;SDS011;9278;52.156;21.048;2023-06-19T15:00:58;4.88;;;4.38;;
18304;SDS011;9278;52.156;21.048;2023-06-19T15:03:26;5.03;;;4.20;;